createdAt,value
2018-01-28T00:00:07.046Z,36.77
2018-01-28T00:03:12.559Z,34.30
2018-01-28T00:06:17.797Z,43.77
2018-01-28T00:09:23.447Z,32.47
2018-01-28T00:12:29.578Z,36.43
2018-01-28T00:15:34.370Z,37.50
2018-01-28T00:18:40.553Z,32.43
2018-01-28T00:21:46.058Z,35.17
2018-01-28T00:24:52.638Z,35.03
2018-01-28T00:27:57.901Z,34.53
2018-01-28T00:31:04.346Z,29.97
2018-01-28T00:34:09.401Z,28.00
2018-01-28T00:37:15.018Z,32.10
2018-01-28T00:40:20.618Z,33.00
2018-01-28T00:43:26.769Z,29.87
2018-01-28T00:46:33.110Z,34.23
2018-01-28T00:49:39.675Z,31.20
2018-01-28T00:52:45.275Z,33.00
2018-01-28T00:55:51.161Z,32.00
2018-01-28T00:58:56.113Z,37.27
2018-01-28T01:02:01.106Z,34.70
2018-01-28T01:05:06.154Z,32.27
2018-01-28T01:08:12.138Z,29.50
2018-01-28T01:11:17.869Z,34.90
2018-01-28T01:14:22.781Z,31.20
2018-01-28T01:17:29.266Z,30.30
2018-01-28T01:20:35.666Z,27.93
2018-01-28T01:23:41.025Z,29.73
2018-01-28T01:26:46.037Z,23.00
2018-01-28T01:29:51.281Z,25.30
2018-01-28T01:32:56.066Z,26.40
2018-01-28T01:36:01.609Z,21.23
2018-01-28T01:39:07.233Z,24.30
2018-01-28T01:42:12.900Z,20.67
2018-01-28T01:45:18.948Z,20.73
2018-01-28T01:48:24.282Z,24.43
2018-01-28T01:51:29.326Z,29.33
2018-01-28T01:54:34.113Z,22.77
2018-01-28T01:57:40.198Z,27.33
2018-01-28T02:00:45.166Z,30.33
2018-01-28T02:03:51.692Z,27.93
2018-01-28T02:06:56.865Z,27.50
2018-01-28T02:10:02.139Z,26.40
2018-01-28T02:13:07.659Z,25.67
2018-01-28T02:16:13.989Z,24.33
2018-01-28T02:19:18.830Z,22.40
2018-01-28T02:22:24.757Z,21.07
2018-01-28T02:25:30.153Z,21.93
2018-01-28T02:28:35.300Z,21.27
2018-01-28T02:31:41.062Z,19.50
2018-01-28T02:34:46.725Z,17.97
2018-01-28T02:37:52.711Z,20.00
2018-01-28T02:40:58.892Z,24.10
2018-01-28T02:44:03.965Z,23.10
2018-01-28T02:47:09.425Z,23.53
2018-01-28T02:50:15.116Z,22.10
2018-01-28T02:53:21.281Z,21.30
2018-01-28T02:56:27.357Z,21.60
2018-01-28T02:59:32.194Z,21.70
2018-01-28T03:02:38.301Z,25.00
2018-01-28T03:05:44.117Z,26.83
2018-01-28T03:08:49.702Z,25.63
2018-01-28T03:11:55.841Z,27.67
2018-01-28T03:15:01.581Z,28.77
2018-01-28T03:18:06.746Z,32.00
2018-01-28T03:21:11.838Z,28.40
2018-01-28T03:24:18.229Z,28.03
2018-01-28T03:27:23.610Z,23.03
2018-01-28T03:30:28.783Z,26.93
2018-01-28T03:33:34.966Z,25.30
2018-01-28T03:36:40.786Z,24.23
2018-01-28T03:39:46.551Z,28.30
2018-01-28T03:42:52.401Z,23.00
2018-01-28T03:45:57.193Z,20.53
2018-01-28T03:49:02.765Z,22.03
2018-01-28T03:52:08.553Z,22.90
2018-01-28T03:55:14.526Z,21.83
2018-01-28T03:58:20.345Z,25.20
2018-01-28T04:01:26.018Z,22.50
2018-01-28T04:04:31.550Z,24.00
2018-01-28T04:07:36.994Z,19.47
2018-01-28T04:10:41.916Z,17.77
2018-01-28T04:13:46.921Z,18.40
2018-01-28T04:16:51.717Z,17.27
2018-01-28T04:19:56.629Z,19.67
2018-01-28T04:23:02.217Z,18.07
2018-01-28T04:26:08.137Z,20.50
2018-01-28T04:29:12.997Z,17.83
2018-01-28T04:32:18.333Z,18.27
2018-01-28T04:35:24.485Z,14.00
2018-01-28T04:38:29.801Z,16.20
2018-01-28T04:41:35.102Z,16.43
2018-01-28T04:44:40.709Z,14.60
2018-01-28T04:47:45.961Z,16.63
2018-01-28T04:50:51.706Z,15.17
2018-01-28T04:53:57.426Z,16.53
2018-01-28T04:57:02.621Z,13.07
2018-01-28T05:00:07.689Z,12.43
2018-01-28T05:03:14.106Z,15.97
2018-01-28T05:06:19.037Z,11.60
2018-01-28T05:09:24.173Z,11.90
2018-01-28T05:12:29.616Z,14.77
2018-01-28T05:15:34.788Z,12.00
2018-01-28T05:18:41.169Z,13.23
2018-01-28T05:21:46.071Z,15.60
2018-01-28T05:24:51.633Z,10.67
2018-01-28T05:27:56.437Z,11.20
2018-01-28T05:31:02.206Z,10.30
2018-01-28T05:34:07.764Z,14.37
2018-01-28T05:37:13.478Z,10.33
2018-01-28T05:40:18.993Z,11.90
2018-01-28T05:43:25.354Z,10.80
2018-01-28T05:46:31.833Z,12.07
2018-01-28T05:49:38.101Z,12.10
2018-01-28T05:52:44.020Z,10.87
2018-01-28T05:55:49.634Z,8.50
2018-01-28T05:58:55.230Z,9.10
2018-01-28T06:02:00.853Z,11.03
2018-01-28T06:05:06.026Z,8.70
2018-01-28T06:08:11.293Z,8.97
2018-01-28T06:11:16.622Z,9.80
2018-01-28T06:14:21.737Z,11.63
2018-01-28T06:17:28.190Z,8.90
2018-01-28T06:20:33.893Z,10.03
2018-01-28T06:23:39.210Z,10.37
2018-01-28T06:26:44.873Z,9.43
2018-01-28T06:29:49.800Z,11.20
2018-01-28T06:32:56.105Z,13.63
2018-01-28T06:36:01.574Z,9.50
2018-01-28T06:39:06.610Z,9.93
2018-01-28T06:42:13.318Z,9.93
2018-01-28T06:45:18.960Z,11.93
2018-01-28T06:48:24.049Z,13.00
2018-01-28T06:51:29.938Z,9.83
2018-01-28T06:54:35.829Z,9.60
2018-01-28T06:57:41.347Z,8.50
2018-01-28T07:00:47.105Z,8.67
2018-01-28T07:03:53.026Z,8.60
2018-01-28T07:06:58.275Z,10.10
2018-01-28T07:10:04.045Z,8.63
2018-01-28T07:13:09.069Z,8.80
2018-01-28T07:16:14.302Z,9.20
2018-01-28T07:19:20.037Z,6.50
2018-01-28T07:22:25.778Z,10.80
2018-01-28T07:25:31.145Z,9.63
2018-01-28T07:28:37.260Z,9.53
2018-01-28T07:31:42.395Z,7.77
2018-01-28T07:34:48.920Z,9.33
2018-01-28T07:37:54.609Z,7.27
2018-01-28T07:40:59.922Z,8.33
2018-01-28T07:44:05.630Z,9.80
2018-01-28T07:47:11.400Z,4.90
2018-01-28T07:50:16.869Z,8.47
2018-01-28T07:53:21.793Z,4.97
2018-01-28T07:56:27.370Z,5.43
2018-01-28T07:59:32.408Z,5.60
2018-01-28T08:02:37.919Z,4.70
2018-01-28T08:05:43.569Z,4.70
2018-01-28T08:08:49.851Z,4.60
2018-01-28T08:11:55.905Z,7.50
2018-01-28T08:15:01.148Z,3.10
2018-01-28T08:18:06.768Z,7.83
2018-01-28T08:21:12.421Z,2.97
2018-01-28T08:24:18.071Z,3.90
2018-01-28T08:27:24.178Z,3.87
2018-01-28T08:30:29.777Z,2.43
2018-01-28T08:33:34.873Z,5.37
2018-01-28T08:36:41.009Z,4.00
2018-01-28T08:39:46.086Z,3.03
2018-01-28T08:42:51.653Z,5.97
2018-01-28T08:45:56.841Z,4.07
2018-01-28T08:49:02.110Z,5.77
2018-01-28T08:52:07.129Z,7.93
2018-01-28T08:55:12.396Z,4.33
2018-01-28T08:58:17.542Z,6.07
2018-01-28T09:01:23.259Z,6.27
2018-01-28T09:04:29.217Z,5.03
2018-01-28T09:07:34.097Z,6.27
2018-01-28T09:10:39.694Z,7.03
2018-01-28T09:13:44.976Z,6.23
2018-01-28T09:16:51.053Z,8.77
2018-01-28T09:19:56.666Z,5.57
2018-01-28T09:23:02.898Z,5.93
2018-01-28T09:26:07.964Z,4.80
2018-01-28T09:29:16.059Z,7.23
2018-01-28T09:32:21.451Z,6.17
2018-01-28T09:35:27.130Z,7.63
2018-01-28T09:38:33.601Z,8.40
2018-01-28T09:41:38.614Z,7.63
2018-01-28T09:44:43.434Z,6.70
2018-01-28T09:47:48.541Z,6.30
2018-01-28T09:50:54.000Z,5.70
2018-01-28T09:54:00.062Z,7.50
2018-01-28T09:57:05.761Z,4.37
2018-01-28T10:00:11.393Z,11.20
2018-01-28T10:03:17.377Z,3.70
2018-01-28T10:06:22.993Z,3.23
2018-01-28T10:09:28.214Z,3.77
2018-01-28T10:12:33.687Z,6.03
2018-01-28T10:15:40.060Z,10.60
2018-01-28T10:18:45.625Z,4.93
2018-01-28T10:21:52.006Z,2.87
2018-01-28T10:24:57.554Z,4.27
2018-01-28T10:28:02.665Z,6.17
2018-01-28T10:31:08.295Z,6.23
2018-01-28T10:34:14.369Z,3.37
2018-01-28T10:37:19.938Z,3.70
2018-01-28T10:40:25.657Z,4.20
2018-01-28T10:43:30.457Z,4.50
2018-01-28T10:46:35.857Z,5.23
2018-01-28T10:49:42.041Z,3.90
2018-01-28T10:52:47.729Z,3.40
2018-01-28T10:55:52.613Z,4.13
2018-01-28T10:58:58.333Z,4.63
2018-01-28T11:02:03.500Z,4.13
2018-01-28T11:05:09.267Z,3.47
2018-01-28T11:08:15.785Z,5.63
2018-01-28T11:11:21.048Z,3.80
2018-01-28T11:14:26.262Z,4.57
2018-01-28T11:17:32.782Z,6.20
2018-01-28T11:20:39.499Z,4.87
2018-01-28T11:23:44.818Z,3.23
2018-01-28T11:26:49.671Z,4.37
2018-01-28T11:29:54.831Z,4.10
2018-01-28T11:32:59.789Z,7.93
2018-01-28T11:36:04.872Z,4.47
2018-01-28T11:39:11.577Z,4.33
2018-01-28T11:42:16.529Z,4.30
2018-01-28T11:45:22.777Z,4.67
2018-01-28T11:48:28.797Z,4.37
2018-01-28T11:51:35.321Z,4.20
2018-01-28T11:54:41.922Z,4.37
2018-01-28T11:57:47.682Z,4.17
2018-01-28T12:00:54.017Z,4.50
2018-01-28T12:04:00.066Z,3.83
2018-01-28T12:07:05.544Z,3.20
2018-01-28T12:10:11.461Z,4.97
2018-01-28T12:13:16.758Z,2.67
2018-01-28T12:16:23.146Z,6.07
2018-01-28T12:19:28.216Z,4.80
2018-01-28T12:22:34.010Z,4.97
2018-01-28T12:25:40.011Z,6.13
2018-01-28T12:28:45.166Z,4.00
2018-01-28T12:31:50.739Z,4.07
2018-01-28T12:34:57.711Z,3.43
2018-01-28T12:38:03.042Z,4.97
2018-01-28T12:41:08.230Z,3.70
2018-01-28T12:44:14.221Z,3.73
2018-01-28T12:47:19.257Z,3.00
2018-01-28T12:50:25.122Z,2.67
2018-01-28T12:53:30.371Z,3.17
2018-01-28T12:56:42.097Z,5.77
2018-01-28T12:59:47.958Z,2.73
2018-01-28T13:02:53.450Z,3.00
2018-01-28T13:05:59.125Z,4.40
2018-01-28T13:09:04.421Z,5.20
2018-01-28T13:12:10.065Z,3.90
2018-01-28T13:15:16.095Z,3.13
2018-01-28T13:18:21.441Z,3.40
2018-01-28T13:21:27.250Z,3.40
2018-01-28T13:24:32.832Z,2.13
2018-01-28T13:27:39.277Z,1.70
2018-01-28T13:30:46.201Z,2.63
2018-01-28T13:33:52.266Z,1.83
2018-01-28T13:36:58.587Z,2.30
2018-01-28T13:40:03.735Z,1.60
2018-01-28T13:43:09.639Z,2.40
2018-01-28T13:46:17.330Z,1.80
2018-01-28T13:49:24.246Z,3.20
2018-01-28T13:52:30.451Z,2.10
2018-01-28T13:55:35.808Z,1.77
2018-01-28T13:58:43.349Z,2.27
2018-01-28T14:01:48.924Z,2.27
2018-01-28T14:04:53.899Z,2.43
2018-01-28T14:07:58.946Z,2.87
2018-01-28T14:11:06.034Z,2.43
2018-01-28T14:14:11.350Z,2.87
2018-01-28T14:17:16.290Z,2.30
2018-01-28T14:20:21.745Z,4.10
2018-01-28T14:23:26.890Z,1.97
2018-01-28T14:26:32.118Z,3.33
2018-01-28T14:29:37.946Z,4.57
2018-01-28T14:32:43.209Z,2.90
2018-01-28T14:35:49.426Z,1.53
2018-01-28T14:38:55.662Z,1.77
2018-01-28T14:42:01.154Z,2.07
2018-01-28T14:45:06.290Z,3.43
2018-01-28T14:48:12.642Z,1.37
2018-01-28T14:51:18.265Z,1.33
2018-01-28T14:54:23.772Z,1.60
2018-01-28T14:57:29.105Z,1.33
2018-01-28T15:00:36.507Z,2.97
2018-01-28T15:03:42.290Z,1.13
2018-01-28T15:06:47.230Z,1.50
2018-01-28T15:09:54.661Z,1.60
2018-01-28T15:13:00.234Z,1.73
2018-01-28T15:16:06.155Z,1.40
2018-01-28T15:19:11.494Z,1.27
2018-01-28T15:22:16.342Z,1.57
2018-01-28T15:25:22.045Z,1.40
2018-01-28T15:28:27.200Z,1.23
2018-01-28T15:31:32.415Z,2.00
2018-01-28T15:34:39.477Z,1.33
2018-01-28T15:37:45.734Z,1.57
2018-01-28T15:40:50.929Z,1.30
2018-01-28T15:43:57.073Z,0.90
2018-01-28T15:47:03.986Z,1.67
2018-01-28T15:50:09.709Z,2.00
2018-01-28T15:53:14.737Z,1.30
2018-01-28T15:56:19.745Z,1.77
2018-01-28T15:59:24.970Z,3.27
2018-01-28T16:02:30.320Z,2.30
2018-01-28T16:05:37.242Z,3.03
2018-01-28T16:08:44.433Z,2.13
2018-01-28T16:11:49.732Z,1.50
2018-01-28T16:14:56.213Z,2.33
2018-01-28T16:18:02.922Z,2.50
2018-01-28T16:21:08.802Z,5.10
2018-01-28T16:24:15.006Z,2.90
2018-01-28T16:27:22.594Z,2.37
2018-01-28T16:30:27.725Z,3.43
2018-01-28T16:33:34.457Z,4.50
2018-01-28T16:36:39.484Z,1.70
2018-01-28T16:39:44.236Z,3.03
2018-01-28T16:42:49.424Z,2.03
2018-01-28T16:45:55.448Z,1.40
2018-01-28T16:49:02.198Z,1.20
2018-01-28T16:52:08.195Z,2.80
2018-01-28T16:55:14.819Z,1.53
2018-01-28T16:58:20.131Z,1.73
2018-01-28T17:01:25.073Z,2.10
2018-01-28T17:04:31.134Z,3.43
2018-01-28T17:07:35.946Z,1.30
2018-01-28T17:10:41.993Z,1.93
2018-01-28T17:13:48.299Z,2.83
2018-01-28T17:16:53.569Z,2.00
2018-01-28T17:19:59.390Z,1.60
2018-01-28T17:23:04.486Z,1.97
2018-01-28T17:26:10.169Z,2.83
2018-01-28T17:29:16.642Z,1.87
2018-01-28T17:32:21.991Z,1.57
2018-01-28T17:35:32.917Z,2.20
2018-01-28T17:38:39.102Z,2.83
2018-01-28T17:41:45.958Z,1.80
2018-01-28T17:44:52.470Z,1.43
2018-01-28T17:47:58.301Z,1.63
2018-01-28T17:51:03.697Z,2.53
2018-01-28T17:54:09.579Z,1.30
2018-01-28T17:57:17.882Z,1.50
2018-01-28T18:00:24.316Z,1.50
2018-01-28T18:03:31.028Z,1.03
2018-01-28T18:06:35.933Z,1.57
2018-01-28T18:09:41.129Z,0.93
2018-01-28T18:12:45.986Z,1.37
2018-01-28T18:15:51.262Z,1.10
2018-01-28T18:18:56.738Z,1.73
2018-01-28T18:22:01.494Z,1.30
2018-01-28T18:25:06.478Z,1.77
2018-01-28T18:28:12.041Z,1.50
2018-01-28T18:31:17.589Z,1.70
2018-01-28T18:34:23.914Z,1.50
2018-01-28T18:37:28.865Z,3.03
2018-01-28T18:40:34.787Z,2.20
2018-01-28T18:43:41.422Z,1.80
2018-01-28T18:46:46.786Z,1.47
2018-01-28T18:49:52.408Z,1.47
2018-01-28T18:52:57.922Z,1.50
2018-01-28T18:56:03.530Z,1.90
2018-01-28T18:59:08.998Z,1.60
2018-01-28T19:02:14.552Z,2.10
2018-01-28T19:05:19.969Z,1.70
2018-01-28T19:08:25.661Z,1.93
2018-01-28T19:11:31.157Z,1.63
2018-01-28T19:14:36.686Z,1.53
2018-01-28T19:17:41.931Z,2.70
2018-01-28T19:20:47.255Z,2.73
2018-01-28T19:23:53.114Z,4.73
2018-01-28T19:26:58.093Z,3.57
2018-01-28T19:30:03.922Z,2.30
2018-01-28T19:33:09.379Z,3.00
2018-01-28T19:36:14.449Z,2.50
2018-01-28T19:39:20.772Z,2.73
2018-01-28T19:42:25.665Z,3.17
2018-01-28T19:45:31.577Z,3.43
2018-01-28T19:48:36.226Z,2.83
2018-01-28T19:51:41.822Z,5.07
2018-01-28T19:54:47.109Z,3.53
2018-01-28T19:57:52.823Z,2.20
2018-01-28T20:00:58.190Z,3.83
2018-01-28T20:04:03.333Z,2.77
2018-01-28T20:07:08.901Z,2.40
2018-01-28T20:10:14.770Z,2.17
2018-01-28T20:13:28.398Z,1.67
2018-01-28T20:16:34.522Z,2.00
2018-01-28T20:19:40.063Z,2.73
2018-01-28T20:22:45.165Z,2.30
2018-01-28T20:25:51.130Z,3.27
2018-01-28T20:28:56.617Z,2.43
2018-01-28T20:32:01.869Z,2.03
2018-01-28T20:35:07.412Z,2.47
2018-01-28T20:38:12.214Z,2.80
2018-01-28T20:41:18.425Z,2.33
2018-01-28T20:44:23.219Z,2.30
2018-01-28T20:47:29.081Z,1.73
2018-01-28T20:50:35.518Z,2.60
2018-01-28T20:53:41.969Z,2.13
2018-01-28T20:56:46.915Z,3.13
2018-01-28T20:59:52.541Z,5.73
2018-01-28T21:02:58.954Z,2.87
2018-01-28T21:06:04.701Z,4.57
2018-01-28T21:09:10.405Z,2.40
2018-01-28T21:12:16.769Z,3.20
2018-01-28T21:15:21.781Z,2.00
2018-01-28T21:18:27.313Z,2.37
2018-01-28T21:21:33.857Z,2.87
2018-01-28T21:24:39.435Z,2.87
2018-01-28T21:27:45.836Z,2.40
2018-01-28T21:30:51.353Z,2.13
2018-01-28T21:33:56.294Z,1.57
2018-01-28T21:37:02.389Z,1.30
2018-01-28T21:40:07.733Z,2.40
2018-01-28T21:43:13.362Z,1.33
2018-01-28T21:46:19.222Z,1.63
2018-01-28T21:49:25.211Z,2.50
2018-01-28T21:52:31.453Z,1.53
2018-01-28T21:55:37.097Z,1.10
2018-01-28T21:58:43.009Z,1.20
2018-01-28T22:01:49.168Z,1.00
2018-01-28T22:04:53.941Z,0.90
2018-01-28T22:07:59.217Z,1.20
2018-01-28T22:11:05.101Z,0.93
2018-01-28T22:14:10.549Z,1.20
2018-01-28T22:17:17.034Z,1.20
2018-01-28T22:20:23.374Z,1.20
2018-01-28T22:23:28.837Z,1.30
2018-01-28T22:26:34.058Z,3.23
2018-01-28T22:29:39.617Z,2.53
2018-01-28T22:32:45.209Z,2.47
2018-01-28T22:35:51.115Z,5.47
2018-01-28T22:38:56.709Z,3.10
2018-01-28T22:42:02.347Z,4.43
2018-01-28T22:45:08.134Z,3.03
2018-01-28T22:48:13.834Z,1.67
2018-01-28T22:51:19.669Z,1.40
2018-01-28T22:54:25.301Z,1.33
2018-01-28T22:57:31.741Z,4.43
2018-01-28T23:00:37.081Z,1.27
2018-01-28T23:03:42.266Z,1.40
2018-01-28T23:06:48.154Z,1.37
2018-01-28T23:09:53.332Z,2.10
2018-01-28T23:12:58.821Z,1.30
2018-01-28T23:16:04.165Z,2.97
2018-01-28T23:19:09.697Z,1.40
2018-01-28T23:22:14.466Z,1.83
2018-01-28T23:25:20.569Z,1.50
2018-01-28T23:28:26.112Z,1.40
2018-01-28T23:31:30.923Z,1.80
2018-01-28T23:34:36.581Z,3.37
2018-01-28T23:37:41.509Z,2.40
2018-01-28T23:40:46.465Z,4.40
2018-01-28T23:43:51.777Z,2.80
2018-01-28T23:46:58.262Z,2.83
2018-01-28T23:50:03.130Z,1.23
2018-01-28T23:53:08.870Z,2.77
2018-01-28T23:56:13.773Z,1.00
2018-01-28T23:59:18.920Z,2.33
